Time;durP1;ratioP1;P1;durP2;ratioP2;P2;SDS_P1;SDS_P2;PMS_P1;PMS_P2;Temp;Humidity;BMP_temperature;BMP_pressure;BME280_temperature;BME280_humidity;BME280_pressure;Samples;Min_cycle;Max_cycle;Signal;HPM_P1;HPM_P2
2023/02/09 00:01:29;;;;;;;6.28;2.78;;;2.30;1.00;;;;;;20570184;28;20414;-40
2023/02/09 00:21:50;;;;;;;10.38;3.20;;;2.20;1.00;;;;;;20566155;28;20505;-41
2023/02/09 00:31:51;;;;;;;7.18;3.83;;;2.10;1.00;;;;;;20569972;28;20483;-40
2023/02/09 00:42:04;;;;;;;9.55;3.45;;;2.10;1.00;;;;;;20577371;28;20053;-40
2023/02/09 00:52:06;;;;;;;6.90;3.38;;;2.00;1.00;;;;;;20554834;28;20561;-41
2023/02/09 01:02:07;;;;;;;7.85;3.60;;;1.90;1.00;;;;;;20569126;28;20594;-41
2023/02/09 01:12:08;;;;;;;7.85;3.22;;;1.80;1.00;;;;;;20575524;28;20288;-40
2023/02/09 01:22:11;;;;;;;13.15;4.65;;;1.70;1.00;;;;;;20571045;28;20050;-40
2023/02/09 01:32:12;;;;;;;8.25;3.58;;;1.80;1.00;;;;;;20585137;28;20514;-41
2023/02/09 01:42:18;;;;;;;6.05;3.45;;;1.80;1.00;;;;;;20573284;28;20034;-40
2023/02/09 01:52:27;;;;;;;10.93;5.43;;;1.70;1.00;;;;;;20587074;28;20061;-40
2023/02/09 02:02:28;;;;;;;8.10;3.42;;;1.60;1.00;;;;;;20573737;28;20042;-40
2023/02/09 02:12:31;;;;;;;5.80;3.28;;;1.40;1.00;;;;;;20570340;28;20054;-40
2023/02/09 02:23:10;;;;;;;5.80;3.08;;;1.30;1.00;;;;;;20567510;28;20399;-41
2023/02/09 02:33:23;;;;;;;8.00;4.28;;;1.40;1.00;;;;;;20570757;28;20496;-41
2023/02/09 02:43:53;;;;;;;6.32;2.88;;;1.40;1.00;;;;;;20566511;28;20528;-40
2023/02/09 02:53:57;;;;;;;6.82;2.90;;;1.30;1.00;;;;;;20566850;28;20045;-41
2023/02/09 03:03:59;;;;;;;5.75;3.85;;;1.10;1.00;;;;;;20558978;28;20042;-40
2023/02/09 03:14:21;;;;;;;7.93;3.33;;;1.00;1.00;;;;;;20564778;28;20039;-40
2023/02/09 03:25:00;;;;;;;6.07;3.45;;;0.80;1.00;;;;;;20573897;28;23776;-40
2023/02/09 03:35:03;;;;;;;7.20;3.10;;;0.90;1.00;;;;;;20561124;28;20053;-40
2023/02/09 03:45:06;;;;;;;7.88;3.45;;;0.90;1.00;;;;;;20567796;28;20034;-41
2023/02/09 03:55:07;;;;;;;11.60;4.68;;;0.90;1.00;;;;;;20569852;28;21251;-40
2023/02/09 04:05:09;;;;;;;7.65;3.55;;;0.80;1.00;;;;;;20567362;28;20034;-40
2023/02/09 04:15:10;;;;;;;6.82;3.58;;;0.80;1.00;;;;;;20561462;28;20077;-40
2023/02/09 04:25:11;;;;;;;5.55;2.60;;;0.90;1.00;;;;;;20561875;28;20422;-41
2023/02/09 04:35:12;;;;;;;7.72;2.83;;;0.90;1.00;;;;;;20556051;28;20418;-40
2023/02/09 04:45:13;;;;;;;6.40;3.75;;;0.90;1.00;;;;;;20556171;28;20034;-40
2023/02/09 04:55:14;;;;;;;5.78;4.13;;;0.80;1.00;;;;;;20555335;28;20062;-40
2023/02/09 05:05:15;;;;;;;7.80;3.55;;;0.90;1.00;;;;;;20565722;28;20038;-40
2023/02/09 05:15:16;;;;;;;7.57;3.15;;;0.80;1.00;;;;;;20567997;28;20053;-40
2023/02/09 05:25:17;;;;;;;8.50;3.58;;;0.70;1.00;;;;;;20575892;28;20049;-40
2023/02/09 05:35:19;;;;;;;7.53;3.72;;;0.70;1.00;;;;;;20575247;28;20534;-40
2023/02/09 05:45:20;;;;;;;6.13;3.40;;;0.60;1.00;;;;;;20568718;28;20034;-40
2023/02/09 05:55:21;;;;;;;6.97;2.83;;;0.60;1.00;;;;;;20545305;28;20458;-41
2023/02/09 06:05:22;;;;;;;6.88;3.95;;;0.50;1.00;;;;;;20565357;28;20041;-40
2023/02/09 06:15:23;;;;;;;6.15;3.53;;;0.50;1.00;;;;;;20564181;28;20058;-41
2023/02/09 06:25:24;;;;;;;6.30;2.83;;;0.40;1.00;;;;;;20564355;28;20525;-40
2023/02/09 06:35:25;;;;;;;6.57;3.60;;;0.40;1.00;;;;;;20566557;28;20054;-40
2023/02/09 06:45:26;;;;;;;9.18;4.63;;;0.50;1.00;;;;;;20568731;28;20035;-41
2023/02/09 06:55:27;;;;;;;10.80;2.72;;;0.40;1.00;;;;;;20558299;28;20477;-41
2023/02/09 07:05:30;;;;;;;6.18;2.85;;;0.40;1.00;;;;;;20562382;28;20047;-40
2023/02/09 07:15:31;;;;;;;6.72;4.25;;;0.30;1.00;;;;;;20564032;28;20386;-40
2023/02/09 07:25:33;;;;;;;9.93;4.22;;;0.30;1.00;;;;;;20550093;28;20334;-40
2023/02/09 07:35:34;;;;;;;7.32;3.67;;;0.30;1.00;;;;;;20551780;28;20509;-40
2023/02/09 07:45:35;;;;;;;8.40;3.50;;;0.40;1.00;;;;;;20557037;28;20296;-40
2023/02/09 07:55:38;;;;;;;9.40;3.60;;;0.50;1.00;;;;;;20555716;28;20057;-40
2023/02/09 08:06:06;;;;;;;9.13;3.53;;;0.50;1.00;;;;;;20551059;28;20045;-40
2023/02/09 08:16:11;;;;;;;8.52;3.75;;;0.70;1.00;;;;;;20556367;28;20498;-41
2023/02/09 08:26:13;;;;;;;12.10;4.57;;;0.80;1.00;;;;;;20549399;28;20073;-41
2023/02/09 08:36:17;;;;;;;7.57;3.15;;;0.80;1.00;;;;;;20548593;28;20065;-41
2023/02/09 08:46:18;;;;;;;8.32;3.53;;;1.00;1.00;;;;;;20555903;28;20034;-41
2023/02/09 08:56:21;;;;;;;12.30;3.72;;;1.20;1.00;;;;;;20546491;28;20043;-40
2023/02/09 09:06:22;;;;;;;10.77;3.97;;;1.50;1.00;;;;;;20559744;28;20119;-41
2023/02/09 09:16:23;;;;;;;7.10;3.55;;;1.50;1.00;;;;;;20554150;28;20043;-41
2023/02/09 09:26:24;;;;;;;8.73;4.05;;;1.70;1.00;;;;;;20546387;28;20050;-41
2023/02/09 09:36:25;;;;;;;5.32;3.40;;;1.90;1.00;;;;;;20552340;28;20046;-41
2023/02/09 09:46:35;;;;;;;10.13;5.28;;;2.10;1.00;;;;;;20544778;28;20075;-41
2023/02/09 09:56:37;;;;;;;8.80;4.30;;;2.50;1.00;;;;;;20572896;28;20038;-40
2023/02/09 10:06:42;;;;;;;9.93;4.72;;;2.50;1.00;;;;;;20564630;28;20035;-41
2023/02/09 10:16:44;;;;;;;9.77;3.65;;;2.70;1.00;;;;;;20560859;28;20079;-41
2023/02/09 10:27:13;;;;;;;9.40;4.75;;;3.00;1.00;;;;;;20566318;28;20038;-41
2023/02/09 10:37:17;;;;;;;13.55;5.57;;;3.20;1.00;;;;;;20552252;28;21374;-41
2023/02/09 10:47:18;;;;;;;7.88;4.28;;;3.30;1.00;;;;;;20561902;28;20031;-41
2023/02/09 10:57:23;;;;;;;7.53;3.78;;;3.40;1.00;;;;;;20556654;28;20093;-41
2023/02/09 11:07:40;;;;;;;16.25;6.78;;;3.50;1.00;;;;;;20556222;28;20046;-43
2023/02/09 11:17:45;;;;;;;9.87;4.87;;;4.00;1.00;;;;;;20491916;28;20409;-41
2023/02/09 11:28:05;;;;;;;8.20;4.18;;;4.60;1.00;;;;;;20506649;28;20525;-41
2023/02/09 11:38:14;;;;;;;6.45;4.07;;;5.30;1.00;;;;;;20485162;28;20055;-41
2023/02/09 11:48:30;;;;;;;7.70;4.50;;;5.50;1.00;;;;;;20554335;28;20109;-41
2023/02/09 11:58:57;;;;;;;10.68;4.78;;;4.90;1.00;;;;;;20558231;28;20298;-41
2023/02/09 12:09:21;;;;;;;11.40;6.28;;;5.20;1.00;;;;;;20557802;28;20035;-42
2023/02/09 12:19:35;;;;;;;8.73;4.75;;;5.50;1.00;;;;;;20553131;28;20034;-42
2023/02/09 12:29:38;;;;;;;7.85;4.47;;;5.90;1.00;;;;;;20558033;28;20504;-41
2023/02/09 12:40:10;;;;;;;14.30;6.05;;;6.10;1.00;;;;;;20557863;28;20042;-41
2023/02/09 12:50:22;;;;;;;12.73;6.55;;;5.80;1.00;;;;;;20551632;28;21556;-41
2023/02/09 13:00:31;;;;;;;12.25;5.05;;;5.70;1.00;;;;;;20550310;28;20042;-41
2023/02/09 13:10:43;;;;;;;13.93;6.97;;;5.70;1.00;;;;;;20550626;28;20624;-41
2023/02/09 13:21:05;;;;;;;13.93;6.28;;;5.60;1.00;;;;;;20551431;28;20046;-41
2023/02/09 13:31:42;;;;;;;9.23;5.32;;;5.50;1.00;;;;;;20573846;28;20773;-41
2023/02/09 13:41:43;;;;;;;11.95;6.88;;;5.40;1.00;;;;;;20543720;28;20401;-41
2023/02/09 13:51:45;;;;;;;12.75;6.03;;;5.20;1.00;;;;;;20571254;28;20042;-41
2023/02/09 14:01:46;;;;;;;10.10;5.88;;;5.30;1.00;;;;;;20575524;28;20049;-43
2023/02/09 14:11:50;;;;;;;12.95;7.03;;;5.20;1.00;;;;;;20575041;28;20514;-41
2023/02/09 14:21:52;;;;;;;12.70;6.25;;;5.40;1.00;;;;;;20568526;28;20528;-41
2023/02/09 14:31:57;;;;;;;16.95;7.80;;;5.40;1.00;;;;;;20566741;28;21009;-41
2023/02/09 14:42:19;;;;;;;22.27;8.48;;;5.40;1.00;;;;;;20565264;28;20061;-41
2023/02/09 14:52:27;;;;;;;13.75;7.18;;;5.40;1.00;;;;;;20557528;28;20068;-41
2023/02/09 15:02:29;;;;;;;15.23;8.10;;;5.40;1.00;;;;;;20560035;28;20417;-42
2023/02/09 15:12:31;;;;;;;12.32;5.97;;;5.40;1.00;;;;;;20556734;28;20118;-41
2023/02/09 15:22:32;;;;;;;10.20;6.50;;;5.40;1.10;;;;;;20553926;28;20053;-41
2023/02/09 15:32:33;;;;;;;13.93;8.27;;;5.40;3.20;;;;;;20556073;28;20057;-41
2023/02/09 15:52:56;;;;;;;19.30;7.95;;;5.30;24.40;;;;;;20553799;28;20057;-41
2023/02/09 16:03:00;;;;;;;10.32;6.57;;;5.20;59.10;;;;;;20563052;28;20524;-41
2023/02/09 16:13:01;;;;;;;14.30;8.00;;;5.20;98.80;;;;;;20556153;28;20041;-41
2023/02/09 16:23:04;;;;;;;17.58;9.85;;;5.20;99.90;;;;;;20548749;28;20470;-41
2023/02/09 16:33:05;;;;;;;15.02;8.57;;;5.10;99.90;;;;;;20554360;28;20038;-43
2023/02/09 16:43:09;;;;;;;17.52;8.57;;;5.10;99.90;;;;;;20550547;28;20058;-43
2023/02/09 16:53:16;;;;;;;13.95;7.53;;;5.00;99.90;;;;;;20554092;28;20046;-42
2023/02/09 17:03:40;;;;;;;17.27;9.87;;;5.10;99.90;;;;;;20579162;28;20042;-40
2023/02/09 17:13:42;;;;;;;16.02;8.68;;;5.10;99.90;;;;;;20575117;28;20454;-41
2023/02/09 17:23:43;;;;;;;21.13;9.55;;;5.20;99.90;;;;;;20575333;28;20062;-41
2023/02/09 17:33:47;;;;;;;13.68;8.05;;;5.20;99.90;;;;;;20570274;28;20042;-41
2023/02/09 17:43:49;;;;;;;16.15;8.75;;;5.10;99.90;;;;;;20557964;28;20038;-41
2023/02/09 17:53:50;;;;;;;16.50;10.05;;;5.00;99.90;;;;;;20555461;28;20051;-41
2023/02/09 18:03:56;;;;;;;15.98;8.57;;;5.00;99.90;;;;;;20547212;28;20359;-41
2023/02/09 18:13:57;;;;;;;19.67;9.20;;;5.00;99.90;;;;;;20567496;28;20704;-41
2023/02/09 18:23:58;;;;;;;15.45;8.77;;;4.80;99.90;;;;;;20556833;28;20034;-41
2023/02/09 18:33:59;;;;;;;15.52;7.75;;;4.60;99.90;;;;;;20566482;28;20455;-41
2023/02/09 18:44:00;;;;;;;18.65;8.98;;;4.40;99.90;;;;;;20561608;28;20050;-41
2023/02/09 18:54:03;;;;;;;16.42;8.38;;;4.30;99.90;;;;;;20553960;28;20051;-40
2023/02/09 19:04:04;;;;;;;14.48;6.72;;;4.10;99.90;;;;;;20562354;28;20046;-40
2023/02/09 19:24:26;;;;;;;15.60;7.40;;;3.70;99.90;;;;;;20497733;28;20575;-40
2023/02/09 19:34:35;;;;;;;23.63;8.30;;;3.40;99.90;;;;;;20522829;28;20043;-40
2023/02/09 19:44:37;;;;;;;14.82;6.95;;;3.30;99.90;;;;;;20560832;28;21452;-43
2023/02/09 19:54:38;;;;;;;15.88;8.88;;;3.20;99.90;;;;;;20567322;28;20066;-41
2023/02/09 20:04:39;;;;;;;11.13;7.60;;;3.20;99.90;;;;;;20549003;28;20035;-41
2023/02/09 20:14:40;;;;;;;13.88;6.85;;;3.10;99.90;;;;;;20559264;28;20038;-43
2023/02/09 20:24:43;;;;;;;11.73;6.78;;;3.00;99.90;;;;;;20550577;28;20046;-43
2023/02/09 20:34:44;;;;;;;11.88;6.47;;;3.00;99.90;;;;;;20539369;28;20046;-43
2023/02/09 20:55:05;;;;;;;15.93;8.23;;;2.80;99.90;;;;;;20546823;28;20054;-43
2023/02/09 21:05:06;;;;;;;17.98;8.90;;;2.70;99.90;;;;;;20547821;28;20042;-43
2023/02/09 21:15:07;;;;;;;15.98;7.70;;;2.70;99.90;;;;;;20566076;28;21589;-43
2023/02/09 21:25:09;;;;;;;13.63;7.00;;;2.60;99.90;;;;;;20560101;28;20039;-41
2023/02/09 21:35:10;;;;;;;10.98;5.90;;;2.60;99.90;;;;;;20556245;28;20387;-41
2023/02/09 21:45:12;;;;;;;14.15;6.00;;;2.60;99.90;;;;;;20565710;28;20046;-41
2023/02/09 21:55:13;;;;;;;11.38;5.38;;;2.50;99.90;;;;;;20572696;28;20054;-41
2023/02/09 22:05:14;;;;;;;13.18;7.07;;;2.50;99.90;;;;;;20568516;28;20506;-41
2023/02/09 22:15:16;;;;;;;8.32;4.68;;;2.50;99.90;;;;;;20561609;28;20042;-41
2023/02/09 22:25:17;;;;;;;10.32;6.20;;;2.40;99.90;;;;;;20560598;28;20041;-41
2023/02/09 22:35:18;;;;;;;11.20;6.85;;;2.30;99.90;;;;;;20560204;28;20046;-41
2023/02/09 22:45:19;;;;;;;38.78;6.85;;;2.30;99.90;;;;;;20561540;28;20504;-41
2023/02/09 22:55:21;;;;;;;12.27;5.45;;;2.30;99.90;;;;;;20557162;28;20058;-41
2023/02/09 23:05:22;;;;;;;9.43;4.25;;;2.30;99.90;;;;;;20566057;28;20034;-41
2023/02/09 23:15:23;;;;;;;8.27;3.50;;;2.30;99.90;;;;;;20575040;28;20520;-41
2023/02/09 23:25:24;;;;;;;9.05;3.67;;;2.30;99.90;;;;;;20581302;28;20038;-41
2023/02/09 23:35:25;;;;;;;10.18;4.05;;;2.10;99.90;;;;;;20580500;28;20047;-41
2023/02/09 23:45:26;;;;;;;11.13;5.05;;;2.10;99.90;;;;;;20578719;28;20557;-41
2023/02/09 23:55:27;;;;;;;7.53;3.15;;;2.00;99.90;;;;;;20582087;28;20101;-41
